createdAt,value
2023-02-15T00:01:38.645Z,24.35
2023-02-15T00:06:52.452Z,22.05
2023-02-15T00:09:19.633Z,22.90
2023-02-15T00:11:52.246Z,25.50
2023-02-15T00:14:24.570Z,26.02
2023-02-15T00:16:53.920Z,23.48
2023-02-15T00:19:24.895Z,24.70
2023-02-15T00:21:52.088Z,26.35
2023-02-15T00:24:20.546Z,23.85
2023-02-15T00:26:51.267Z,22.60
2023-02-15T00:29:19.418Z,22.60
2023-02-15T00:31:46.819Z,23.42
2023-02-15T00:34:25.497Z,33.05
2023-02-15T00:36:52.965Z,27.10
2023-02-15T00:39:21.013Z,24.10
2023-02-15T00:41:48.530Z,27.00
2023-02-15T00:44:25.368Z,23.02
2023-02-15T00:46:54.833Z,25.33
2023-02-15T00:49:21.717Z,25.75
2023-02-15T00:51:48.862Z,27.73
2023-02-15T00:54:16.143Z,24.33
2023-02-15T00:56:45.716Z,26.35
2023-02-15T00:59:15.690Z,23.13
2023-02-15T01:01:42.760Z,27.50
2023-02-15T01:04:09.995Z,24.40
2023-02-15T01:06:40.282Z,26.23
2023-02-15T01:09:07.152Z,27.70
2023-02-15T01:11:34.210Z,25.85
2023-02-15T01:14:01.396Z,26.10
2023-02-15T01:16:30.204Z,25.92
2023-02-15T01:18:57.458Z,25.77
2023-02-15T01:21:28.465Z,24.27
2023-02-15T01:23:55.181Z,27.83
2023-02-15T01:26:22.430Z,27.60
2023-02-15T01:28:49.389Z,24.27
2023-02-15T01:31:18.447Z,24.35
2023-02-15T01:33:45.844Z,28.75
2023-02-15T01:36:13.017Z,25.48
2023-02-15T01:38:41.163Z,25.45
2023-02-15T01:41:24.591Z,26.65
2023-02-15T01:43:59.824Z,25.45
2023-02-15T01:46:48.744Z,25.75
2023-02-15T01:49:19.002Z,25.77
2023-02-15T01:51:47.557Z,23.05
2023-02-15T01:54:20.981Z,28.33
2023-02-15T01:56:48.492Z,29.98
2023-02-15T01:59:18.378Z,26.52
2023-02-15T02:01:45.557Z,26.95
2023-02-15T02:04:20.296Z,26.15
2023-02-15T02:06:48.340Z,33.10
2023-02-15T02:09:15.419Z,30.55
2023-02-15T02:11:42.751Z,32.40
2023-02-15T02:14:09.908Z,29.33
2023-02-15T02:16:48.735Z,30.92
2023-02-15T02:19:34.400Z,30.25
2023-02-15T02:22:37.233Z,30.80
2023-02-15T02:25:25.739Z,36.10
2023-02-15T02:28:10.060Z,37.47
2023-02-15T02:30:51.492Z,33.22
2023-02-15T02:33:44.173Z,32.30
2023-02-15T02:36:25.843Z,32.13
2023-02-15T02:39:09.981Z,34.92
2023-02-15T02:41:54.111Z,37.63
2023-02-15T02:44:20.923Z,30.48
2023-02-15T02:47:10.344Z,31.52
2023-02-15T02:49:42.610Z,34.47
2023-02-15T02:52:36.203Z,34.20
2023-02-15T02:55:06.313Z,30.35
2023-02-15T02:57:35.481Z,35.67
2023-02-15T03:00:04.641Z,33.28
2023-02-15T03:02:36.018Z,33.60
2023-02-15T03:05:07.326Z,43.33
2023-02-15T03:07:37.234Z,38.25
2023-02-15T03:10:06.237Z,37.03
2023-02-15T03:12:38.605Z,38.95
2023-02-15T03:15:12.772Z,39.50
2023-02-15T03:17:47.296Z,38.90
2023-02-15T03:20:42.445Z,39.97
2023-02-15T03:23:15.211Z,42.08
2023-02-15T03:25:43.681Z,40.60
2023-02-15T03:28:15.027Z,45.35
2023-02-15T03:30:45.049Z,42.25
2023-02-15T03:33:12.779Z,45.60
2023-02-15T03:35:54.299Z,45.33
2023-02-15T03:38:31.272Z,44.47
2023-02-15T03:41:12.351Z,42.65
2023-02-15T03:43:45.244Z,47.92
2023-02-15T03:46:30.842Z,40.40
2023-02-15T03:49:24.310Z,45.60
2023-02-15T03:51:53.482Z,44.00
2023-02-15T03:54:42.841Z,46.33
2023-02-15T03:57:43.853Z,48.28
2023-02-15T04:00:36.821Z,48.92
2023-02-15T04:03:15.968Z,42.28
2023-02-15T04:05:44.779Z,45.97
2023-02-15T04:08:12.937Z,41.30
2023-02-15T04:10:57.445Z,40.78
2023-02-15T04:13:30.733Z,42.88
2023-02-15T04:16:08.378Z,41.35
2023-02-15T04:19:06.763Z,45.85
2023-02-15T04:21:52.859Z,44.00
2023-02-15T04:24:38.647Z,49.55
2023-02-15T04:27:06.988Z,42.70
2023-02-15T04:29:33.976Z,44.65
2023-02-15T04:32:02.583Z,49.95
2023-02-15T04:34:29.649Z,43.33
2023-02-15T04:36:56.576Z,38.25
2023-02-15T04:39:23.456Z,44.70
2023-02-15T04:41:53.408Z,43.42
2023-02-15T04:44:22.858Z,43.63
2023-02-15T04:46:49.879Z,44.33
2023-02-15T04:49:16.882Z,45.65
2023-02-15T04:51:43.778Z,44.55
2023-02-15T04:54:10.905Z,47.17
2023-02-15T04:56:39.303Z,49.95
2023-02-15T04:59:06.925Z,43.60
2023-02-15T05:01:33.568Z,45.33
2023-02-15T05:04:00.789Z,44.15
2023-02-15T05:06:30.285Z,53.72
2023-02-15T05:09:06.538Z,45.97
2023-02-15T05:11:33.479Z,44.50
2023-02-15T05:14:00.459Z,43.22
2023-02-15T05:16:29.000Z,44.50
2023-02-15T05:18:56.115Z,47.58
2023-02-15T05:21:23.381Z,47.88
2023-02-15T05:23:50.651Z,41.95
2023-02-15T05:26:38.676Z,44.33
2023-02-15T05:29:05.475Z,45.13
2023-02-15T05:31:33.561Z,50.80
2023-02-15T05:34:04.058Z,47.42
2023-02-15T05:36:30.891Z,46.03
2023-02-15T05:39:00.492Z,46.00
2023-02-15T05:41:27.411Z,42.25
2023-02-15T05:43:57.155Z,49.53
2023-02-15T05:46:24.358Z,49.15
2023-02-15T05:48:51.271Z,44.80
2023-02-15T05:51:18.385Z,47.33
2023-02-15T05:53:45.293Z,49.53
2023-02-15T05:56:16.193Z,50.97
2023-02-15T05:58:45.653Z,49.42
2023-02-15T06:01:21.027Z,52.03
2023-02-15T06:03:50.575Z,49.30
2023-02-15T06:06:17.785Z,49.83
2023-02-15T06:08:44.920Z,53.72
2023-02-15T06:11:12.305Z,49.13
2023-02-15T06:13:39.335Z,47.65
2023-02-15T06:16:07.478Z,52.15
2023-02-15T06:18:35.160Z,53.33
2023-02-15T06:21:01.992Z,48.63
2023-02-15T06:23:29.128Z,56.35
2023-02-15T06:25:56.215Z,59.05
2023-02-15T06:28:26.847Z,62.22
2023-02-15T06:31:03.554Z,62.75
2023-02-15T06:33:31.720Z,64.05
2023-02-15T06:36:00.261Z,56.55
2023-02-15T06:38:27.606Z,61.22
2023-02-15T06:40:59.352Z,63.47
2023-02-15T06:43:29.469Z,66.32
2023-02-15T06:45:57.090Z,61.50
2023-02-15T06:48:24.386Z,64.45
2023-02-15T06:50:52.146Z,58.53
2023-02-15T06:53:21.579Z,55.22
2023-02-15T06:55:48.707Z,67.63
2023-02-15T06:58:19.916Z,67.05
2023-02-15T07:00:46.586Z,64.60
2023-02-15T07:03:18.750Z,56.80
2023-02-15T07:05:49.967Z,65.65
2023-02-15T07:08:17.286Z,58.17
2023-02-15T07:10:47.587Z,50.17
2023-02-15T07:13:14.507Z,59.10
2023-02-15T07:15:44.954Z,52.75
2023-02-15T07:18:12.775Z,76.45
2023-02-15T07:20:41.297Z,80.03
2023-02-15T07:23:09.983Z,52.28
2023-02-15T07:25:37.423Z,50.80
2023-02-15T07:28:05.469Z,59.95
2023-02-15T07:30:32.842Z,60.83
2023-02-15T07:33:19.321Z,67.15
2023-02-15T07:35:53.744Z,57.05
2023-02-15T07:38:20.798Z,62.08
2023-02-15T07:40:47.860Z,55.60
2023-02-15T07:43:15.350Z,53.67
2023-02-15T07:45:42.915Z,50.78
2023-02-15T07:48:10.284Z,56.50
2023-02-15T07:50:37.636Z,49.30
2023-02-15T07:53:04.672Z,52.05
2023-02-15T07:55:31.810Z,48.60
2023-02-15T07:57:59.382Z,60.05
2023-02-15T08:00:26.636Z,46.55
2023-02-15T08:03:14.812Z,54.33
2023-02-15T08:05:43.698Z,48.10
2023-02-15T08:08:31.034Z,49.30
2023-02-15T08:11:34.049Z,47.75
2023-02-15T08:14:05.644Z,43.13
2023-02-15T08:16:49.103Z,48.38
2023-02-15T08:19:19.795Z,41.42
2023-02-15T08:21:52.207Z,34.58
2023-02-15T08:24:21.721Z,36.80
2023-02-15T08:26:51.061Z,37.85
2023-02-15T08:29:23.837Z,38.08
2023-02-15T08:31:54.355Z,42.20
2023-02-15T08:34:27.102Z,36.30
2023-02-15T08:36:53.989Z,33.28
2023-02-15T08:39:21.766Z,34.30
2023-02-15T08:41:49.480Z,44.15
2023-02-15T08:44:21.264Z,44.08
2023-02-15T08:46:54.100Z,36.50
2023-02-15T08:49:22.749Z,39.28
2023-02-15T08:51:50.538Z,42.47
2023-02-15T08:54:21.452Z,36.58
2023-02-15T08:56:51.588Z,35.92
2023-02-15T08:59:31.521Z,39.88
2023-02-15T09:01:58.872Z,40.08
2023-02-15T09:04:25.812Z,37.80
2023-02-15T09:06:53.086Z,34.63
2023-02-15T09:09:21.245Z,35.58
2023-02-15T09:11:57.485Z,36.67
2023-02-15T09:14:30.229Z,38.17
2023-02-15T09:16:57.031Z,36.38
2023-02-15T09:19:24.739Z,34.30
2023-02-15T09:21:51.690Z,34.15
2023-02-15T09:24:19.132Z,40.17
2023-02-15T09:26:48.636Z,38.17
2023-02-15T09:29:19.487Z,37.20
2023-02-15T09:31:50.117Z,39.92
2023-02-15T09:34:22.865Z,39.53
2023-02-15T09:36:50.110Z,32.97
2023-02-15T09:39:20.211Z,30.85
2023-02-15T09:42:21.916Z,33.03
2023-02-15T09:44:51.224Z,33.50
2023-02-15T09:47:38.935Z,44.63
2023-02-15T09:50:44.796Z,34.22
2023-02-15T09:53:32.939Z,35.08
2023-02-15T09:56:21.665Z,36.45
2023-02-15T09:59:22.642Z,32.50
2023-02-15T10:01:56.688Z,30.88
2023-02-15T10:04:45.719Z,30.48
2023-02-15T10:07:38.193Z,30.58
2023-02-15T10:10:36.721Z,26.73
2023-02-15T10:13:44.416Z,30.00
2023-02-15T10:16:33.633Z,27.80
2023-02-15T10:19:18.107Z,30.17
2023-02-15T10:21:51.503Z,28.35
2023-02-15T10:24:40.960Z,27.15
2023-02-15T10:27:21.497Z,30.55
2023-02-15T10:29:51.268Z,31.65
2023-02-15T10:32:26.347Z,29.20
2023-02-15T10:35:08.334Z,29.35
2023-02-15T10:37:48.711Z,29.80
2023-02-15T10:40:52.758Z,26.13
2023-02-15T10:43:40.799Z,30.70
2023-02-15T10:46:52.994Z,28.45
2023-02-15T10:49:28.853Z,36.42
2023-02-15T10:52:21.460Z,32.35
2023-02-15T10:55:03.073Z,30.25
2023-02-15T10:57:42.830Z,32.20
2023-02-15T11:00:33.254Z,31.02
2023-02-15T11:03:18.577Z,28.52
2023-02-15T11:06:01.630Z,27.42
2023-02-15T11:08:38.575Z,24.48
2023-02-15T11:11:26.573Z,25.83
2023-02-15T11:13:58.221Z,27.65
2023-02-15T11:16:31.546Z,27.90
2023-02-15T11:19:05.050Z,27.23
2023-02-15T11:21:40.233Z,24.38
2023-02-15T11:24:12.971Z,23.52
2023-02-15T11:26:45.931Z,26.88
2023-02-15T11:29:40.772Z,23.90
2023-02-15T11:32:23.390Z,26.48
2023-02-15T11:34:57.781Z,27.60
2023-02-15T11:37:38.653Z,23.30
2023-02-15T11:40:18.889Z,23.35
2023-02-15T11:42:47.065Z,22.48
2023-02-15T11:45:37.819Z,25.02
2023-02-15T11:48:11.742Z,25.13
2023-02-15T11:50:39.216Z,24.52
2023-02-15T11:53:12.678Z,24.92
2023-02-15T11:55:42.009Z,21.67
2023-02-15T11:58:36.217Z,27.05
2023-02-15T12:01:24.665Z,19.83
2023-02-15T12:03:53.446Z,26.13
2023-02-15T12:06:25.280Z,24.70
2023-02-15T12:09:00.129Z,19.42
2023-02-15T12:11:31.932Z,22.50
2023-02-15T12:17:15.170Z,20.10
2023-02-15T12:19:53.564Z,21.50
2023-02-15T12:22:31.956Z,24.00
2023-02-15T12:25:05.884Z,23.15
2023-02-15T12:27:36.347Z,22.88
2023-02-15T12:30:10.990Z,22.45
2023-02-15T12:32:50.706Z,24.50
2023-02-15T12:35:28.305Z,21.25
2023-02-15T12:38:04.220Z,19.45
2023-02-15T12:40:33.354Z,23.15
2023-02-15T12:43:01.194Z,20.90
2023-02-15T12:45:33.799Z,24.35
2023-02-15T12:48:19.470Z,19.80
2023-02-15T12:50:57.095Z,22.95
2023-02-15T12:53:26.677Z,26.17
2023-02-15T12:56:01.618Z,23.13
2023-02-15T12:58:37.686Z,26.42
2023-02-15T13:01:17.511Z,19.67
2023-02-15T13:04:28.381Z,21.52
2023-02-15T13:07:03.876Z,19.20
2023-02-15T13:12:25.154Z,23.00
2023-02-15T13:15:00.818Z,23.95
2023-02-15T13:17:39.609Z,20.67
2023-02-15T13:20:10.939Z,22.60
2023-02-15T13:22:49.503Z,20.92
2023-02-15T13:25:22.859Z,20.95
2023-02-15T13:28:01.080Z,20.67
2023-02-15T13:30:30.290Z,21.33
2023-02-15T13:33:00.760Z,25.50
2023-02-15T13:35:32.597Z,24.23
2023-02-15T13:38:14.495Z,19.05
2023-02-15T13:40:47.135Z,20.23
2023-02-15T13:43:20.700Z,19.92
2023-02-15T13:45:50.084Z,22.88
2023-02-15T13:48:51.340Z,25.90
2023-02-15T13:51:42.162Z,26.38
2023-02-15T13:54:43.855Z,19.63
2023-02-15T13:57:55.312Z,19.08
2023-02-15T14:00:46.950Z,22.65
2023-02-15T14:03:31.910Z,20.13
2023-02-15T14:06:07.983Z,21.92
2023-02-15T14:08:58.285Z,21.23
2023-02-15T14:11:49.824Z,20.27
2023-02-15T14:14:41.903Z,19.65
2023-02-15T14:17:23.829Z,19.55
2023-02-15T14:20:22.451Z,18.45
2023-02-15T14:22:57.625Z,19.58
2023-02-15T14:25:32.850Z,19.75
2023-02-15T14:28:13.748Z,21.58
2023-02-15T14:30:44.230Z,17.40
2023-02-15T14:33:52.914Z,19.55
2023-02-15T14:36:23.603Z,17.27
2023-02-15T14:39:04.547Z,19.08
2023-02-15T14:42:01.432Z,24.27
2023-02-15T14:44:33.389Z,18.13
2023-02-15T14:47:12.691Z,21.52
2023-02-15T14:49:40.662Z,20.20
2023-02-15T14:52:12.951Z,17.50
2023-02-15T14:54:54.419Z,20.23
2023-02-15T14:57:25.092Z,20.33
2023-02-15T14:59:59.540Z,17.90
2023-02-15T15:02:52.157Z,21.60
2023-02-15T15:05:28.088Z,15.18
2023-02-15T15:07:59.508Z,16.13
2023-02-15T15:10:42.007Z,18.65
2023-02-15T15:13:33.794Z,16.63
2023-02-15T15:16:26.869Z,17.33
2023-02-15T15:18:54.022Z,21.10
2023-02-15T15:21:52.018Z,16.92
2023-02-15T15:24:40.376Z,17.15
2023-02-15T15:27:46.220Z,20.45
2023-02-15T15:30:16.055Z,19.63
2023-02-15T15:32:58.470Z,15.80
2023-02-15T15:35:47.096Z,20.10
2023-02-15T15:38:36.782Z,13.77
2023-02-15T15:41:38.473Z,15.75
2023-02-15T15:44:31.336Z,20.88
2023-02-15T15:47:03.784Z,14.50
2023-02-15T15:49:35.461Z,20.70
2023-02-15T15:52:03.651Z,14.70
2023-02-15T15:54:31.321Z,14.98
2023-02-15T15:57:07.797Z,13.77
2023-02-15T15:59:35.530Z,12.55
2023-02-15T16:02:11.544Z,11.30
2023-02-15T16:04:38.472Z,9.50
2023-02-15T16:07:21.018Z,10.98
2023-02-15T16:09:59.214Z,13.75
2023-02-15T16:12:29.252Z,16.27
2023-02-15T16:14:57.613Z,10.18
2023-02-15T16:17:30.609Z,14.93
2023-02-15T16:20:05.158Z,9.85
2023-02-15T16:22:33.432Z,9.68
2023-02-15T16:25:27.213Z,9.02
2023-02-15T16:27:54.393Z,9.57
2023-02-15T16:30:33.303Z,10.45
2023-02-15T16:33:17.638Z,15.57
2023-02-15T16:36:01.235Z,8.65
2023-02-15T16:38:44.243Z,10.90
2023-02-15T16:41:16.677Z,8.05
2023-02-15T16:43:48.538Z,10.68
2023-02-15T16:46:21.885Z,9.57
2023-02-15T16:48:54.705Z,8.02
2023-02-15T16:51:32.826Z,9.10
2023-02-15T16:54:10.243Z,10.48
2023-02-15T16:56:40.753Z,9.30
2023-02-15T16:59:07.806Z,11.70
2023-02-15T17:01:35.446Z,8.85
2023-02-15T17:04:21.563Z,9.63
2023-02-15T17:07:20.879Z,8.25
2023-02-15T17:09:58.002Z,12.57
2023-02-15T17:12:56.502Z,8.95
2023-02-15T17:15:32.998Z,9.45
2023-02-15T17:18:02.803Z,8.57
2023-02-15T17:20:32.101Z,11.43
2023-02-15T17:23:00.887Z,9.55
2023-02-15T17:25:37.247Z,10.10
2023-02-15T17:28:06.250Z,10.38
2023-02-15T17:30:41.891Z,13.27
2023-02-15T17:33:21.459Z,8.32
2023-02-15T17:36:03.699Z,11.02
2023-02-15T17:38:30.714Z,11.15
2023-02-15T17:41:00.871Z,9.25
2023-02-15T17:43:34.321Z,10.38
2023-02-15T17:46:01.452Z,9.02
2023-02-15T17:48:37.797Z,11.63
2023-02-15T17:51:06.891Z,12.18
2023-02-15T17:53:34.087Z,9.75
2023-02-15T17:56:11.848Z,10.68
2023-02-15T17:58:49.666Z,13.32
2023-02-15T18:01:37.446Z,12.27
2023-02-15T18:04:23.224Z,19.52
2023-02-15T18:07:13.878Z,17.08
2023-02-15T18:09:59.292Z,18.42
2023-02-15T18:12:28.671Z,18.77
2023-02-15T18:14:58.909Z,20.23
2023-02-15T18:17:37.846Z,21.27
2023-02-15T18:20:19.092Z,22.98
2023-02-15T18:22:49.478Z,24.10
2023-02-15T18:25:21.077Z,23.67
2023-02-15T18:27:49.167Z,27.50
2023-02-15T18:30:21.176Z,27.05
2023-02-15T18:32:51.633Z,29.25
2023-02-15T18:35:24.007Z,28.85
2023-02-15T18:37:53.924Z,29.35
2023-02-15T18:40:22.596Z,25.92
2023-02-15T18:42:49.892Z,23.50
2023-02-15T18:45:19.316Z,23.80
2023-02-15T18:47:48.150Z,25.67
2023-02-15T18:50:19.739Z,24.67
2023-02-15T18:52:48.321Z,25.10
2023-02-15T18:55:23.489Z,26.50
2023-02-15T18:57:52.839Z,25.60
2023-02-15T19:00:25.934Z,27.75
2023-02-15T19:02:55.612Z,29.52
2023-02-15T19:05:23.403Z,28.25
2023-02-15T19:07:55.282Z,29.92
2023-02-15T19:10:24.452Z,31.35
2023-02-15T19:12:53.432Z,23.02
2023-02-15T19:15:26.241Z,30.27
2023-02-15T19:17:54.586Z,26.52
2023-02-15T19:20:36.852Z,29.83
2023-02-15T19:23:05.299Z,24.13
2023-02-15T19:25:40.844Z,30.77
2023-02-15T19:28:16.708Z,29.33
2023-02-15T19:30:44.572Z,30.77
2023-02-15T19:33:19.666Z,28.45
2023-02-15T19:35:48.549Z,27.58
2023-02-15T19:38:21.860Z,28.05
2023-02-15T19:40:48.914Z,27.90
2023-02-15T19:43:26.490Z,31.15
2023-02-15T19:45:56.161Z,30.45
2023-02-15T19:48:25.372Z,31.20
2023-02-15T19:50:53.720Z,32.20
2023-02-15T19:53:28.441Z,28.33
2023-02-15T19:55:55.692Z,29.35
2023-02-15T19:58:26.482Z,28.77
2023-02-15T20:00:53.410Z,32.78
2023-02-15T20:03:21.327Z,29.38
2023-02-15T20:05:49.821Z,34.28
2023-02-15T20:08:23.606Z,36.50
2023-02-15T20:10:50.707Z,29.83
2023-02-15T20:13:23.516Z,35.35
2023-02-15T20:15:57.516Z,32.25
2023-02-15T20:18:24.670Z,31.30
2023-02-15T20:20:57.019Z,34.70
2023-02-15T20:23:45.270Z,30.73
2023-02-15T20:26:19.870Z,35.95
2023-02-15T20:28:49.975Z,32.65
2023-02-15T20:31:20.965Z,30.70
2023-02-15T20:33:49.123Z,32.47
2023-02-15T20:36:17.633Z,33.75
2023-02-15T20:38:45.215Z,36.05
2023-02-15T20:41:37.123Z,30.90
2023-02-15T20:44:29.400Z,33.03
2023-02-15T20:46:58.829Z,33.42
2023-02-15T20:49:29.603Z,34.20
2023-02-15T20:51:57.215Z,35.10
2023-02-15T20:54:29.917Z,33.90
2023-02-15T20:56:59.947Z,35.47
2023-02-15T20:59:33.653Z,37.83
2023-02-15T21:02:02.791Z,32.22
2023-02-15T21:04:34.772Z,29.67
2023-02-15T21:07:01.717Z,37.95
2023-02-15T21:09:33.227Z,34.40
2023-02-15T21:12:02.837Z,29.55
2023-02-15T21:14:29.948Z,31.73
2023-02-15T21:16:57.293Z,30.23
2023-02-15T21:19:24.940Z,29.13
2023-02-15T21:21:54.048Z,31.45
2023-02-15T21:24:26.942Z,32.38
2023-02-15T21:26:56.887Z,31.45
2023-02-15T21:29:27.033Z,27.30
2023-02-15T21:31:54.620Z,33.40
2023-02-15T21:34:21.702Z,28.85
2023-02-15T21:36:51.180Z,30.63
2023-02-15T21:39:31.017Z,29.63
2023-02-15T21:42:16.632Z,33.60
2023-02-15T21:45:02.113Z,31.40
2023-02-15T21:47:52.787Z,30.80
2023-02-15T21:50:43.524Z,35.28
2023-02-15T21:53:13.447Z,38.03
2023-02-15T21:55:43.227Z,29.48
2023-02-15T21:58:27.800Z,29.17
2023-02-15T22:00:58.099Z,33.65
2023-02-15T22:03:34.034Z,32.20
2023-02-15T22:06:01.418Z,25.92
2023-02-15T22:08:28.235Z,35.63
2023-02-15T22:10:56.527Z,28.15
2023-02-15T22:13:34.198Z,28.05
2023-02-15T22:16:01.199Z,31.58
2023-02-15T22:18:35.404Z,34.53
2023-02-15T22:21:04.857Z,33.03
2023-02-15T22:23:32.021Z,32.63
2023-02-15T22:26:06.633Z,31.17
2023-02-15T22:28:39.113Z,34.25
2023-02-15T22:31:25.517Z,29.48
2023-02-15T22:33:52.555Z,31.20
2023-02-15T22:36:28.322Z,30.77
2023-02-15T22:38:55.955Z,30.35
2023-02-15T22:41:26.091Z,33.92
2023-02-15T22:43:53.319Z,28.88
2023-02-15T22:46:23.467Z,28.30
2023-02-15T22:48:50.832Z,29.90
2023-02-15T22:51:26.874Z,33.45
2023-02-15T22:53:54.351Z,30.08
2023-02-15T22:56:42.736Z,33.30
2023-02-15T22:59:38.715Z,29.00
2023-02-15T23:02:08.329Z,26.08
2023-02-15T23:04:35.185Z,28.63
2023-02-15T23:07:02.244Z,29.23
2023-02-15T23:09:29.248Z,31.83
2023-02-15T23:11:58.881Z,24.98
2023-02-15T23:14:27.757Z,25.50
2023-02-15T23:16:54.893Z,30.80
2023-02-15T23:19:21.761Z,29.17
2023-02-15T23:21:49.399Z,29.35
2023-02-15T23:24:27.657Z,31.95
2023-02-15T23:26:54.956Z,30.98
2023-02-15T23:29:23.736Z,29.67
2023-02-15T23:31:53.431Z,27.73
2023-02-15T23:34:25.749Z,31.60
2023-02-15T23:36:52.850Z,30.85
2023-02-15T23:39:48.578Z,27.52
2023-02-15T23:42:25.223Z,28.95
2023-02-15T23:44:52.307Z,32.22
2023-02-15T23:47:20.597Z,27.27
2023-02-15T23:49:47.607Z,29.63
2023-02-15T23:52:15.667Z,29.38
2023-02-15T23:54:48.105Z,29.38
2023-02-15T23:57:15.045Z,27.45
2023-02-15T23:59:47.425Z,31.23
